createdAt,value
2022-12-22T00:01:50.016Z,97350.57
2022-12-22T00:04:39.041Z,97354.42
2022-12-22T00:07:27.835Z,97357.08
2022-12-22T00:10:16.258Z,97347.78
2022-12-22T00:13:04.945Z,97352.21
2022-12-22T00:15:55.251Z,97348.02
2022-12-22T00:18:45.608Z,97350.97
2022-12-22T00:21:34.485Z,97347.60
2022-12-22T00:24:22.864Z,97352.04
2022-12-22T00:27:11.407Z,97351.03
2022-12-22T00:30:02.266Z,97340.24
2022-12-22T00:32:55.463Z,97345.15
2022-12-22T00:35:45.756Z,97340.54
2022-12-22T00:38:37.847Z,97339.28
2022-12-22T00:41:27.082Z,97333.05
2022-12-22T00:44:15.664Z,97325.55
2022-12-22T00:47:06.275Z,97334.06
2022-12-22T00:49:56.522Z,97328.29
2022-12-22T00:52:45.464Z,97320.20
2022-12-22T00:55:37.704Z,97323.23
2022-12-22T00:58:32.953Z,97315.63
2022-12-22T01:01:21.515Z,97310.55
2022-12-22T01:04:11.349Z,97313.69
2022-12-22T01:07:00.131Z,97310.48
2022-12-22T01:09:48.888Z,97305.14
2022-12-22T01:12:41.236Z,97307.17
2022-12-22T01:15:33.009Z,97299.91
2022-12-22T01:18:21.695Z,97305.09
2022-12-22T01:21:11.354Z,97310.06
2022-12-22T01:24:01.403Z,97305.11
2022-12-22T01:26:50.298Z,97298.95
2022-12-22T01:29:39.146Z,97309.02
2022-12-22T01:32:32.939Z,97309.80
2022-12-22T01:35:21.393Z,97306.26
2022-12-22T01:38:10.372Z,97296.53
2022-12-22T01:40:59.238Z,97293.90
2022-12-22T01:43:49.608Z,97291.92
2022-12-22T01:46:46.535Z,97282.64
2022-12-22T01:49:37.579Z,97277.66
2022-12-22T01:52:28.311Z,97281.11
2022-12-22T01:55:21.721Z,97282.75
2022-12-22T01:58:10.958Z,97278.38
2022-12-22T02:01:00.808Z,97274.58
2022-12-22T02:03:49.801Z,97277.89
2022-12-22T02:06:46.768Z,97277.29
2022-12-22T02:09:52.194Z,97273.69
2022-12-22T02:12:52.018Z,97264.66
2022-12-22T02:15:49.428Z,97255.48
2022-12-22T02:18:44.375Z,97252.69
2022-12-22T02:21:36.902Z,97245.59
2022-12-22T02:24:41.650Z,97248.47
2022-12-22T02:27:31.167Z,97243.09
2022-12-22T02:30:23.497Z,97241.80
2022-12-22T02:33:12.537Z,97239.58
2022-12-22T02:36:07.796Z,97233.80
2022-12-22T02:39:05.519Z,97235.38
2022-12-22T02:42:03.661Z,97231.52
2022-12-22T02:45:04.278Z,97230.98
2022-12-22T02:48:01.165Z,97232.34
2022-12-22T02:50:54.278Z,97236.33
2022-12-22T02:53:45.675Z,97238.22
2022-12-22T02:56:34.439Z,97239.34
2022-12-22T02:59:22.905Z,97235.03
2022-12-22T03:02:11.505Z,97226.21
2022-12-22T03:05:00.574Z,97228.75
2022-12-22T03:07:49.088Z,97230.63
2022-12-22T03:10:37.945Z,97226.56
2022-12-22T03:13:26.597Z,97216.57
2022-12-22T03:16:14.824Z,97220.98
2022-12-22T03:19:03.208Z,97218.55
2022-12-22T03:21:51.951Z,97213.42
2022-12-22T03:24:40.434Z,97209.52
2022-12-22T03:27:11.492Z,97201.05
2022-12-22T03:29:42.485Z,97202.77
2022-12-22T03:32:13.511Z,97205.27
2022-12-22T03:34:44.641Z,97199.08
2022-12-22T03:37:15.484Z,97198.38
2022-12-22T03:39:46.513Z,97196.20
2022-12-22T03:42:35.202Z,97188.17
2022-12-22T03:45:25.183Z,97188.67
2022-12-22T03:47:56.115Z,97189.08
2022-12-22T03:50:27.152Z,97178.33
2022-12-22T03:52:58.083Z,97174.16
2022-12-22T03:55:29.417Z,97172.69
2022-12-22T03:58:00.218Z,97167.71
2022-12-22T04:00:31.457Z,97166.11
2022-12-22T04:03:03.133Z,97164.73
2022-12-22T04:05:34.348Z,97165.55
2022-12-22T04:08:05.643Z,97166.83
2022-12-22T04:10:54.400Z,97163.27
2022-12-22T04:13:25.506Z,97154.70
2022-12-22T04:15:56.757Z,97155.27
2022-12-22T04:18:27.993Z,97160.23
2022-12-22T04:20:59.579Z,97158.80
2022-12-22T04:23:29.343Z,97157.65
2022-12-22T04:26:00.818Z,97155.41
2022-12-22T04:28:32.010Z,97158.77
2022-12-22T04:31:02.929Z,97164.02
2022-12-22T04:33:33.963Z,97169.71
2022-12-22T04:36:05.075Z,97166.52
2022-12-22T04:38:34.550Z,97167.63
2022-12-22T04:41:05.634Z,97162.50
2022-12-22T04:43:36.703Z,97159.72
2022-12-22T04:46:08.398Z,97154.66
2022-12-22T04:48:39.779Z,97154.30
2022-12-22T04:51:10.946Z,97156.63
2022-12-22T04:53:42.039Z,97154.61
2022-12-22T04:56:13.050Z,97154.81
2022-12-22T04:58:44.061Z,97152.33
2022-12-22T05:01:17.626Z,97151.91
2022-12-22T05:03:48.923Z,97143.70
2022-12-22T05:06:20.056Z,97137.71
2022-12-22T05:08:51.077Z,97138.48
2022-12-22T05:11:22.228Z,97138.83
2022-12-22T05:13:53.256Z,97139.23
2022-12-22T05:16:24.563Z,97142.17
2022-12-22T05:18:55.392Z,97141.11
2022-12-22T05:21:26.396Z,97137.20
2022-12-22T05:23:58.505Z,97128.98
2022-12-22T05:26:29.592Z,97113.37
2022-12-22T05:29:00.614Z,97104.20
2022-12-22T05:31:31.893Z,97108.14
2022-12-22T05:34:02.940Z,97100.64
2022-12-22T05:36:34.187Z,97095.67
2022-12-22T05:39:05.297Z,97103.13
2022-12-22T05:41:36.264Z,97103.44
2022-12-22T05:44:07.856Z,97105.87
2022-12-22T05:46:39.164Z,97097.34
2022-12-22T05:49:10.374Z,97098.71
2022-12-22T05:51:41.386Z,97098.00
2022-12-22T05:54:13.541Z,97097.90
2022-12-22T05:56:44.674Z,97100.23
2022-12-22T05:59:14.434Z,97101.30
2022-12-22T06:01:45.709Z,97105.80
2022-12-22T06:04:16.914Z,97109.56
2022-12-22T06:06:46.588Z,97108.45
2022-12-22T06:09:17.871Z,97110.42
2022-12-22T06:11:48.838Z,97109.62
2022-12-22T06:14:19.686Z,97103.17
2022-12-22T06:16:50.673Z,97102.27
2022-12-22T06:19:21.719Z,97100.98
2022-12-22T06:21:52.821Z,97097.98
2022-12-22T06:24:23.726Z,97089.48
2022-12-22T06:26:54.812Z,97087.34
2022-12-22T06:29:26.162Z,97089.33
2022-12-22T06:31:57.564Z,97088.36
2022-12-22T06:34:28.610Z,97084.76
2022-12-22T06:36:58.331Z,97087.70
2022-12-22T06:39:29.388Z,97084.41
2022-12-22T06:42:18.322Z,97081.56
2022-12-22T06:44:50.744Z,97078.98
2022-12-22T06:47:21.734Z,97079.89
2022-12-22T06:49:52.734Z,97081.56
2022-12-22T06:52:23.834Z,97080.91
2022-12-22T06:54:54.810Z,97076.75
2022-12-22T06:57:25.650Z,97073.25
2022-12-22T06:59:57.889Z,97079.08
2022-12-22T07:02:29.598Z,97080.45
2022-12-22T07:05:01.439Z,97083.64
2022-12-22T07:07:32.598Z,97083.89
2022-12-22T07:10:03.682Z,97077.55
2022-12-22T07:12:34.686Z,97074.71
2022-12-22T07:15:06.641Z,97072.33
2022-12-22T07:17:38.214Z,97068.43
2022-12-22T07:20:08.555Z,97065.34
2022-12-22T07:22:39.619Z,97063.27
2022-12-22T07:25:11.851Z,97065.14
2022-12-22T07:27:44.299Z,97065.70
2022-12-22T07:30:16.546Z,97061.89
2022-12-22T07:32:47.609Z,97062.10
2022-12-22T07:35:18.817Z,97054.80
2022-12-22T07:37:50.611Z,97053.62
2022-12-22T07:40:21.557Z,97054.14
2022-12-22T07:42:56.743Z,97057.27
2022-12-22T07:45:28.794Z,97056.05
2022-12-22T07:48:23.888Z,97049.52
2022-12-22T07:51:04.574Z,97044.02
2022-12-22T07:53:36.104Z,97038.64
2022-12-22T07:56:08.855Z,97037.88
2022-12-22T07:58:40.068Z,97036.46
2022-12-22T08:01:11.131Z,97036.52
2022-12-22T08:03:42.278Z,97037.52
2022-12-22T08:06:13.445Z,97032.60
2022-12-22T08:08:42.979Z,97027.27
2022-12-22T08:11:14.593Z,97029.65
2022-12-22T08:13:44.372Z,97027.97
2022-12-22T08:16:16.804Z,97024.67
2022-12-22T08:18:48.144Z,97016.45
2022-12-22T08:21:19.231Z,97016.65
2022-12-22T08:23:50.358Z,97013.95
2022-12-22T08:26:23.263Z,97014.42
2022-12-22T08:28:59.450Z,97007.11
2022-12-22T08:31:31.763Z,97005.53
2022-12-22T08:34:07.327Z,97002.98
2022-12-22T08:36:43.054Z,96999.69
2022-12-22T08:39:15.084Z,96993.30
2022-12-22T08:41:52.830Z,96990.14
2022-12-22T08:44:23.568Z,96986.58
2022-12-22T08:46:56.024Z,96990.19
2022-12-22T08:49:28.142Z,96989.28
2022-12-22T08:51:59.848Z,96987.89
2022-12-22T08:54:31.432Z,96984.74
2022-12-22T08:57:02.436Z,96977.02
2022-12-22T08:59:33.707Z,96978.84
2022-12-22T09:02:05.777Z,96975.85
2022-12-22T09:04:37.821Z,96969.05
2022-12-22T09:07:08.898Z,96973.52
2022-12-22T09:09:40.159Z,96972.11
2022-12-22T09:12:11.361Z,96970.33
2022-12-22T09:14:42.273Z,96970.99
2022-12-22T09:17:13.368Z,96968.05
2022-12-22T09:19:44.365Z,96964.14
2022-12-22T09:22:15.519Z,96960.61
2022-12-22T09:24:46.577Z,96957.52
2022-12-22T09:27:17.805Z,96962.77
2022-12-22T09:29:48.946Z,96958.91
2022-12-22T09:32:20.339Z,96957.20
2022-12-22T09:34:50.007Z,96957.50
2022-12-22T09:37:21.038Z,96956.11
2022-12-22T09:39:51.021Z,96949.98
2022-12-22T09:42:24.107Z,96947.89
2022-12-22T09:44:55.173Z,96948.29
2022-12-22T09:47:37.520Z,96947.15
2022-12-22T09:50:17.101Z,96942.33
2022-12-22T09:52:52.525Z,96934.30
2022-12-22T09:55:39.003Z,96937.29
2022-12-22T09:58:25.964Z,96934.08
2022-12-22T10:01:07.626Z,96926.61
2022-12-22T10:03:46.719Z,96928.49
2022-12-22T10:06:29.553Z,96921.18
2022-12-22T10:09:45.771Z,96922.81
2022-12-22T10:12:07.334Z,96920.72
2022-12-22T10:14:42.900Z,96915.90
2022-12-22T10:17:23.946Z,96919.81
2022-12-22T10:20:07.640Z,96916.15
2022-12-22T10:22:48.321Z,96917.56
2022-12-22T10:25:51.943Z,96910.20
2022-12-22T10:28:26.436Z,96907.61
2022-12-22T10:31:13.291Z,96900.46
2022-12-22T10:33:47.791Z,96904.98
2022-12-22T10:36:24.135Z,96886.57
2022-12-22T10:39:02.687Z,96884.55
2022-12-22T10:41:37.505Z,96888.36
2022-12-22T10:44:11.670Z,96874.19
2022-12-22T10:46:45.322Z,96877.02
2022-12-22T10:49:20.680Z,96879.45
2022-12-22T10:51:55.065Z,96871.42
2022-12-22T10:54:37.209Z,96861.30
2022-12-22T10:57:27.356Z,96856.35
2022-12-22T10:59:59.911Z,96854.71
2022-12-22T11:02:35.221Z,96847.84
2022-12-22T11:05:09.091Z,96842.66
2022-12-22T11:07:42.131Z,96836.90
2022-12-22T11:10:25.011Z,96836.88
2022-12-22T11:13:16.919Z,96832.98
2022-12-22T11:16:00.262Z,96826.83
2022-12-22T11:18:51.886Z,96823.80
2022-12-22T11:21:29.897Z,96816.70
2022-12-22T11:24:10.002Z,96817.76
2022-12-22T11:26:51.706Z,96817.84
2022-12-22T11:29:41.454Z,96813.26
2022-12-22T11:32:27.736Z,96807.77
2022-12-22T11:35:06.565Z,96806.03
2022-12-22T11:37:49.711Z,96802.37
2022-12-22T11:40:33.211Z,96794.08
2022-12-22T11:43:25.648Z,96791.73
2022-12-22T11:46:13.272Z,96791.41
2022-12-22T11:49:01.008Z,96787.65
2022-12-22T11:51:48.607Z,96774.05
2022-12-22T11:54:44.267Z,96767.23
2022-12-22T11:57:25.832Z,96766.99
2022-12-22T12:00:04.037Z,96763.90
2022-12-22T12:03:08.598Z,96759.89
2022-12-22T12:06:00.408Z,96756.70
2022-12-22T12:08:41.072Z,96751.87
2022-12-22T12:11:24.606Z,96748.73
2022-12-22T12:14:09.277Z,96749.21
2022-12-22T12:16:47.360Z,96745.77
2022-12-22T12:19:51.656Z,96739.27
2022-12-22T12:22:37.695Z,96736.52
2022-12-22T12:25:26.255Z,96737.00
2022-12-22T12:28:17.407Z,96733.48
2022-12-22T12:30:56.038Z,96731.14
2022-12-22T12:33:36.388Z,96734.22
2022-12-22T12:36:16.285Z,96725.14
2022-12-22T12:39:10.341Z,96727.42
2022-12-22T12:41:49.560Z,96724.36
2022-12-22T12:44:24.301Z,96723.08
2022-12-22T12:47:28.644Z,96718.23
2022-12-22T12:50:07.289Z,96712.34
2022-12-22T12:53:16.340Z,96711.17
2022-12-22T12:55:59.443Z,96707.95
2022-12-22T12:58:50.740Z,96701.58
2022-12-22T13:01:56.115Z,96702.23
2022-12-22T13:05:12.654Z,96703.84
2022-12-22T13:08:08.285Z,96696.02
2022-12-22T13:10:42.234Z,96695.67
2022-12-22T13:13:47.172Z,96690.28
2022-12-22T13:16:41.173Z,96698.41
2022-12-22T13:19:26.524Z,96695.14
2022-12-22T13:21:59.288Z,96695.25
2022-12-22T13:24:49.189Z,96696.52
2022-12-22T13:27:20.761Z,96698.95
2022-12-22T13:29:50.399Z,96696.11
2022-12-22T13:32:27.312Z,96694.10
2022-12-22T13:35:31.120Z,96690.33
2022-12-22T13:37:57.698Z,96695.25
2022-12-22T13:40:31.153Z,96695.56
2022-12-22T13:43:06.588Z,96696.66
2022-12-22T13:45:41.238Z,96699.50
2022-12-22T13:48:21.801Z,96700.08
2022-12-22T13:50:56.660Z,96693.44
2022-12-22T13:56:27.220Z,96691.56
2022-12-22T13:59:01.878Z,96693.46
2022-12-22T14:01:33.251Z,96688.02
2022-12-22T14:04:08.016Z,96686.89
2022-12-22T14:06:42.097Z,96683.01
2022-12-22T14:09:22.306Z,96684.20
2022-12-22T14:11:57.157Z,96686.66
2022-12-22T14:14:32.481Z,96685.11
2022-12-22T14:17:04.147Z,96682.52
2022-12-22T14:19:38.575Z,96684.48
2022-12-22T14:22:12.728Z,96683.70
2022-12-22T14:24:49.417Z,96676.61
2022-12-22T14:27:31.730Z,96682.85
2022-12-22T14:30:06.288Z,96683.79
2022-12-22T14:32:52.413Z,96686.83
2022-12-22T14:35:31.183Z,96685.91
2022-12-22T14:38:21.603Z,96690.06
2022-12-22T14:40:57.348Z,96693.42
2022-12-22T14:43:32.019Z,96692.92
2022-12-22T14:46:08.934Z,96689.63
2022-12-22T14:48:46.688Z,96688.38
2022-12-22T14:51:20.949Z,96685.13
2022-12-22T14:53:55.614Z,96679.14
2022-12-22T14:56:28.409Z,96680.85
2022-12-22T14:59:13.555Z,96682.08
2022-12-22T15:02:00.160Z,96687.50
2022-12-22T15:04:32.019Z,96686.94
2022-12-22T15:08:02.629Z,96684.70
2022-12-22T15:10:15.730Z,96685.88
2022-12-22T15:12:48.709Z,96689.61
2022-12-22T15:15:22.255Z,96691.57
2022-12-22T15:17:54.752Z,96696.69
2022-12-22T15:20:31.163Z,96695.08
2022-12-22T15:23:09.626Z,96693.59
2022-12-22T15:25:40.610Z,96692.33
2022-12-22T15:28:11.686Z,96694.77
2022-12-22T15:30:43.415Z,96694.24
2022-12-22T15:33:17.519Z,96697.23
2022-12-22T15:35:48.833Z,96695.80
2022-12-22T15:38:19.070Z,96694.71
2022-12-22T15:40:50.784Z,96691.77
2022-12-22T15:43:55.831Z,96694.52
2022-12-22T15:46:18.943Z,96694.20
2022-12-22T15:48:50.467Z,96689.38
2022-12-22T15:51:25.846Z,96690.19
2022-12-22T15:53:58.324Z,96688.08
2022-12-22T15:56:33.709Z,96688.09
2022-12-22T15:59:04.931Z,96681.64
2022-12-22T16:01:36.260Z,96681.45
2022-12-22T16:04:10.736Z,96686.84
2022-12-22T16:06:41.990Z,96686.02
2022-12-22T16:09:21.863Z,96681.23
2022-12-22T16:11:52.844Z,96679.05
2022-12-22T16:14:25.338Z,96678.64
2022-12-22T16:16:56.545Z,96682.48
2022-12-22T16:19:27.671Z,96682.23
2022-12-22T16:21:59.772Z,96678.38
2022-12-22T16:24:36.082Z,96675.04
2022-12-22T16:27:07.884Z,96673.55
2022-12-22T16:29:39.489Z,96668.00
2022-12-22T16:32:23.975Z,96672.18
2022-12-22T16:34:55.182Z,96670.63
2022-12-22T16:37:24.640Z,96668.52
2022-12-22T16:39:55.461Z,96676.77
2022-12-22T16:45:22.609Z,96672.80
2022-12-22T16:47:56.648Z,96667.52
2022-12-22T16:50:33.053Z,96671.92
2022-12-22T16:53:06.644Z,96670.00
2022-12-22T16:55:37.856Z,96671.52
2022-12-22T16:58:13.663Z,96671.59
2022-12-22T17:00:46.748Z,96670.52
2022-12-22T17:03:23.311Z,96674.86
2022-12-22T17:05:58.833Z,96672.64
2022-12-22T17:08:33.684Z,96673.45
2022-12-22T17:11:11.032Z,96677.61
2022-12-22T17:13:42.624Z,96682.73
2022-12-22T17:16:21.917Z,96680.95
2022-12-22T17:18:53.349Z,96683.44
2022-12-22T17:21:25.329Z,96682.63
2022-12-22T17:24:03.791Z,96677.97
2022-12-22T17:26:35.712Z,96682.41
2022-12-22T17:29:07.197Z,96679.16
2022-12-22T17:31:38.365Z,96680.94
2022-12-22T17:34:18.862Z,96683.21
2022-12-22T17:36:51.032Z,96682.35
2022-12-22T17:39:25.680Z,96677.27
2022-12-22T17:41:57.718Z,96676.98
2022-12-22T17:44:29.035Z,96672.88
2022-12-22T17:46:58.689Z,96667.95
2022-12-22T17:49:30.390Z,96674.63
2022-12-22T17:52:02.181Z,96667.11
2022-12-22T17:54:33.268Z,96671.58
2022-12-22T17:57:05.769Z,96673.41
2022-12-22T17:59:36.839Z,96678.79
2022-12-22T18:02:07.939Z,96676.80
2022-12-22T18:04:38.882Z,96676.40
2022-12-22T18:07:10.013Z,96677.98
2022-12-22T18:09:41.378Z,96682.98
2022-12-22T18:12:18.965Z,96685.08
2022-12-22T18:14:50.987Z,96678.92
2022-12-22T18:17:31.620Z,96684.86
2022-12-22T18:20:07.569Z,96692.09
2022-12-22T18:22:38.546Z,96689.54
2022-12-22T18:25:18.606Z,96689.55
2022-12-22T18:27:50.010Z,96693.67
2022-12-22T18:30:24.717Z,96700.64
2022-12-22T18:32:57.566Z,96701.63
2022-12-22T18:35:30.377Z,96713.04
2022-12-22T18:38:02.158Z,96723.69
2022-12-22T18:40:35.523Z,96725.54
2022-12-22T18:43:07.726Z,96724.77
2022-12-22T18:45:38.866Z,96721.15
2022-12-22T18:48:10.156Z,96725.71
2022-12-22T18:50:42.565Z,96729.12
2022-12-22T18:53:24.306Z,96724.91
2022-12-22T18:55:55.546Z,96730.73
2022-12-22T18:58:27.062Z,96733.48
2022-12-22T19:00:58.646Z,96738.86
2022-12-22T19:03:31.281Z,96741.19
2022-12-22T19:06:02.261Z,96739.05
2022-12-22T19:08:33.482Z,96740.52
2022-12-22T19:11:08.074Z,96744.31
2022-12-22T19:13:43.413Z,96751.22
2022-12-22T19:16:17.288Z,96759.50
2022-12-22T19:18:48.426Z,96769.73
2022-12-22T19:21:20.703Z,96770.23
2022-12-22T19:23:52.008Z,96773.37
2022-12-22T19:26:26.533Z,96773.81
2022-12-22T19:29:01.296Z,96775.88
2022-12-22T19:31:35.328Z,96773.23
2022-12-22T19:34:11.926Z,96765.30
2022-12-22T19:36:42.916Z,96764.59
2022-12-22T19:39:13.928Z,96762.28
2022-12-22T19:41:48.529Z,96769.63
2022-12-22T19:44:23.226Z,96778.06
2022-12-22T19:46:55.496Z,96786.36
2022-12-22T19:49:29.071Z,96783.59
2022-12-22T19:52:00.897Z,96790.69
2022-12-22T19:54:32.580Z,96789.16
2022-12-22T19:57:04.343Z,96792.70
2022-12-22T19:59:39.537Z,96787.17
2022-12-22T20:02:26.520Z,96790.08
2022-12-22T20:04:58.312Z,96794.25
2022-12-22T20:07:32.963Z,96791.06
2022-12-22T20:10:03.969Z,96800.33
2022-12-22T20:12:37.755Z,96799.52
2022-12-22T20:15:18.722Z,96796.00
2022-12-22T20:17:50.899Z,96799.93
2022-12-22T20:20:23.923Z,96803.46
2022-12-22T20:22:58.146Z,96802.70
2022-12-22T20:25:33.978Z,96807.38
2022-12-22T20:28:07.138Z,96809.38
2022-12-22T20:30:38.124Z,96808.27
2022-12-22T20:33:12.148Z,96803.65
2022-12-22T20:35:44.817Z,96810.72
2022-12-22T20:38:18.849Z,96807.69
2022-12-22T20:40:51.275Z,96815.36
2022-12-22T20:43:29.647Z,96828.38
2022-12-22T20:46:04.877Z,96837.08
2022-12-22T20:48:37.828Z,96846.88
2022-12-22T20:51:13.550Z,96846.48
2022-12-22T20:53:45.710Z,96845.80
2022-12-22T20:56:22.809Z,96851.80
2022-12-22T20:58:54.000Z,96855.86
2022-12-22T21:01:25.557Z,96856.26
2022-12-22T21:03:56.670Z,96852.60
2022-12-22T21:06:30.199Z,96853.36
2022-12-22T21:09:02.642Z,96855.52
2022-12-22T21:11:36.106Z,96853.98
2022-12-22T21:14:07.321Z,96851.14
2022-12-22T21:16:39.093Z,96851.05
2022-12-22T21:19:16.793Z,96854.75
2022-12-22T21:21:46.453Z,96849.98
2022-12-22T21:24:18.692Z,96845.02
2022-12-22T21:26:52.466Z,96859.09
2022-12-22T21:29:26.248Z,96863.20
2022-12-22T21:31:57.378Z,96867.95
2022-12-22T21:34:28.452Z,96875.70
2022-12-22T21:37:04.416Z,96874.84
2022-12-22T21:39:41.871Z,96870.16
2022-12-22T21:42:17.303Z,96862.80
2022-12-22T21:44:48.342Z,96862.70
2022-12-22T21:47:21.212Z,96864.73
2022-12-22T21:49:52.489Z,96865.89
2022-12-22T21:52:23.687Z,96865.11
2022-12-22T21:54:54.977Z,96863.69
2022-12-22T21:57:28.709Z,96862.01
2022-12-22T21:59:59.844Z,96867.05
2022-12-22T22:02:31.134Z,96868.93
2022-12-22T22:05:00.898Z,96868.85
2022-12-22T22:07:32.024Z,96872.94
2022-12-22T22:10:03.143Z,96869.75
2022-12-22T22:12:37.245Z,96871.11
2022-12-22T22:15:11.318Z,96867.32
2022-12-22T22:17:42.957Z,96859.50
2022-12-22T22:20:17.980Z,96855.45
2022-12-22T22:22:51.256Z,96849.66
2022-12-22T22:25:23.188Z,96846.30
2022-12-22T22:27:54.492Z,96838.63
2022-12-22T22:30:26.967Z,96836.55
2022-12-22T22:32:58.441Z,96839.09
2022-12-22T22:35:29.968Z,96839.67
2022-12-22T22:38:01.428Z,96836.84
2022-12-22T22:40:32.604Z,96834.30
2022-12-22T22:43:03.849Z,96829.49
2022-12-22T22:45:34.841Z,96820.19
2022-12-22T22:48:10.841Z,96819.66
2022-12-22T22:50:44.182Z,96823.51
2022-12-22T22:53:15.311Z,96827.60
2022-12-22T22:55:46.411Z,96828.09
2022-12-22T22:58:18.388Z,96816.80
2022-12-22T23:00:49.432Z,96810.44
2022-12-22T23:03:20.507Z,96811.30
2022-12-22T23:05:52.092Z,96806.42
2022-12-22T23:08:23.142Z,96800.63
2022-12-22T23:10:54.254Z,96799.45
2022-12-22T23:13:23.939Z,96799.79
2022-12-22T23:16:00.115Z,96803.44
2022-12-22T23:18:31.996Z,96801.64
2022-12-22T23:21:05.517Z,96797.58
2022-12-22T23:23:37.081Z,96803.15
2022-12-22T23:26:08.882Z,96798.77
2022-12-22T23:28:40.547Z,96799.59
2022-12-22T23:31:14.068Z,96806.48
2022-12-22T23:33:45.020Z,96801.25
2022-12-22T23:36:16.237Z,96792.77
2022-12-22T23:38:45.904Z,96793.98
2022-12-22T23:41:17.327Z,96794.46
2022-12-22T23:43:48.322Z,96795.92
2022-12-22T23:46:20.132Z,96793.90
2022-12-22T23:48:54.646Z,96786.38
2022-12-22T23:51:28.067Z,96781.58
2022-12-22T23:54:01.471Z,96786.33
2022-12-22T23:56:33.860Z,96787.17
2022-12-22T23:59:05.051Z,96784.82
